createdAt,value
2022-10-16T00:01:14.884Z,15.99
2022-10-16T00:03:42.642Z,16.12
2022-10-16T00:06:10.600Z,15.99
2022-10-16T00:08:38.341Z,15.77
2022-10-16T00:11:06.879Z,15.86
2022-10-16T00:13:34.544Z,16.03
2022-10-16T00:16:03.102Z,16.18
2022-10-16T00:18:30.902Z,16.20
2022-10-16T00:21:03.031Z,16.21
2022-10-16T00:23:51.565Z,16.18
2022-10-16T00:26:18.987Z,16.25
2022-10-16T00:28:47.183Z,16.34
2022-10-16T00:31:15.305Z,16.28
2022-10-16T00:33:42.613Z,16.15
2022-10-16T00:36:11.900Z,16.06
2022-10-16T00:38:39.341Z,15.99
2022-10-16T00:41:07.505Z,15.97
2022-10-16T00:43:43.661Z,15.99
2022-10-16T00:46:13.615Z,15.91
2022-10-16T00:48:40.829Z,15.83
2022-10-16T00:51:08.495Z,15.77
2022-10-16T00:53:36.439Z,15.77
2022-10-16T00:56:04.261Z,15.72
2022-10-16T00:58:31.477Z,15.66
2022-10-16T01:00:58.659Z,15.63
2022-10-16T01:03:27.916Z,15.58
2022-10-16T01:06:04.637Z,15.55
2022-10-16T01:08:44.422Z,15.38
2022-10-16T01:11:37.672Z,15.40
2022-10-16T01:14:12.412Z,15.52
2022-10-16T01:16:44.353Z,15.62
2022-10-16T01:19:21.335Z,15.67
2022-10-16T01:21:50.298Z,15.65
2022-10-16T01:24:20.593Z,15.61
2022-10-16T01:27:06.521Z,15.45
2022-10-16T01:29:37.677Z,15.51
2022-10-16T01:32:16.970Z,15.59
2022-10-16T01:35:13.693Z,15.59
2022-10-16T01:37:45.178Z,15.58
2022-10-16T01:40:13.796Z,15.65
2022-10-16T01:42:47.584Z,15.59
2022-10-16T01:45:16.013Z,15.48
2022-10-16T01:47:44.788Z,15.49
2022-10-16T01:50:13.527Z,15.51
2022-10-16T01:52:43.061Z,15.53
2022-10-16T01:55:11.846Z,15.53
2022-10-16T01:57:40.850Z,15.51
2022-10-16T02:00:10.661Z,15.53
2022-10-16T02:02:41.929Z,15.58
2022-10-16T02:05:17.100Z,15.57
2022-10-16T02:07:45.477Z,15.50
2022-10-16T02:10:12.953Z,15.52
2022-10-16T02:12:43.095Z,15.48
2022-10-16T02:15:10.302Z,15.45
2022-10-16T02:17:37.516Z,15.50
2022-10-16T02:20:05.393Z,15.51
2022-10-16T02:22:37.300Z,15.58
2022-10-16T02:25:20.701Z,15.58
2022-10-16T02:27:53.899Z,15.56
2022-10-16T02:30:24.457Z,15.56
2022-10-16T02:32:53.432Z,15.57
2022-10-16T02:35:22.184Z,15.57
2022-10-16T02:37:50.320Z,15.59
2022-10-16T02:40:20.319Z,15.59
2022-10-16T02:42:51.469Z,15.57
2022-10-16T02:45:19.108Z,15.55
2022-10-16T02:47:46.409Z,15.56
2022-10-16T02:50:13.807Z,15.59
2022-10-16T02:52:40.983Z,15.52
2022-10-16T02:55:08.242Z,15.49
2022-10-16T02:57:36.411Z,15.52
2022-10-16T03:00:05.209Z,15.52
2022-10-16T03:02:32.374Z,15.42
2022-10-16T03:04:59.610Z,15.48
2022-10-16T03:07:26.955Z,15.50
2022-10-16T03:09:55.567Z,15.57
2022-10-16T03:12:23.245Z,15.62
2022-10-16T03:14:50.416Z,15.66
2022-10-16T03:17:17.905Z,15.64
2022-10-16T03:19:45.089Z,15.69
2022-10-16T03:22:12.297Z,15.73
2022-10-16T03:24:39.497Z,15.73
2022-10-16T03:27:06.922Z,15.64
2022-10-16T03:29:34.402Z,15.64
2022-10-16T03:32:01.764Z,15.61
2022-10-16T03:34:29.041Z,15.68
2022-10-16T03:36:56.626Z,15.76
2022-10-16T03:39:23.783Z,15.76
2022-10-16T03:41:50.943Z,15.76
2022-10-16T03:44:18.163Z,15.70
2022-10-16T03:46:45.372Z,15.77
2022-10-16T03:49:12.872Z,15.81
2022-10-16T03:51:40.137Z,15.80
2022-10-16T03:54:07.387Z,15.80
2022-10-16T03:56:34.563Z,15.75
2022-10-16T03:59:01.764Z,15.73
2022-10-16T04:01:28.953Z,15.59
2022-10-16T04:03:56.149Z,15.58
2022-10-16T04:06:23.369Z,15.63
2022-10-16T04:08:50.593Z,15.65
2022-10-16T04:11:17.714Z,15.49
2022-10-16T04:13:45.165Z,15.34
2022-10-16T04:16:12.319Z,15.35
2022-10-16T04:18:39.540Z,15.42
2022-10-16T04:21:07.054Z,15.50
2022-10-16T04:23:34.232Z,15.55
2022-10-16T04:26:01.496Z,15.37
2022-10-16T04:28:28.864Z,15.34
2022-10-16T04:30:56.252Z,15.44
2022-10-16T04:33:23.444Z,15.51
2022-10-16T04:35:56.789Z,15.57
2022-10-16T04:38:23.989Z,15.60
2022-10-16T04:40:51.437Z,15.64
2022-10-16T04:43:18.792Z,15.65
2022-10-16T04:45:46.068Z,15.67
2022-10-16T04:48:13.526Z,15.61
2022-10-16T04:50:40.713Z,15.62
2022-10-16T04:53:08.342Z,15.61
2022-10-16T04:55:35.794Z,15.45
2022-10-16T04:58:03.022Z,15.32
2022-10-16T05:00:30.244Z,15.40
2022-10-16T05:02:58.174Z,15.48
2022-10-16T05:05:25.482Z,15.51
2022-10-16T05:07:52.669Z,15.50
2022-10-16T05:10:19.971Z,15.58
2022-10-16T05:12:47.202Z,15.61
2022-10-16T05:15:14.437Z,15.62
2022-10-16T05:17:44.592Z,15.56
2022-10-16T05:20:12.771Z,15.49
2022-10-16T05:22:40.045Z,15.54
2022-10-16T05:25:07.418Z,15.59
2022-10-16T05:27:34.667Z,15.64
2022-10-16T05:30:01.843Z,15.50
2022-10-16T05:32:29.017Z,15.53
2022-10-16T05:34:56.257Z,15.61
2022-10-16T05:37:23.757Z,15.71
2022-10-16T05:39:51.166Z,15.80
2022-10-16T05:42:18.424Z,15.82
2022-10-16T05:44:46.713Z,15.74
2022-10-16T05:47:15.098Z,15.65
2022-10-16T05:49:42.378Z,15.70
2022-10-16T05:52:09.548Z,15.73
2022-10-16T05:54:36.714Z,15.55
2022-10-16T05:57:03.921Z,15.57
2022-10-16T05:59:31.086Z,15.65
2022-10-16T06:01:58.303Z,15.72
2022-10-16T06:04:25.428Z,15.69
2022-10-16T06:06:52.642Z,15.60
2022-10-16T06:09:19.822Z,15.67
2022-10-16T06:11:47.045Z,15.59
2022-10-16T06:14:14.339Z,15.52
2022-10-16T06:16:41.925Z,15.46
2022-10-16T06:19:10.303Z,15.39
2022-10-16T06:21:37.612Z,15.52
2022-10-16T06:24:05.265Z,15.65
2022-10-16T06:26:32.669Z,15.74
2022-10-16T06:29:00.443Z,15.82
2022-10-16T06:31:30.127Z,15.77
2022-10-16T06:33:57.962Z,15.66
2022-10-16T06:36:26.021Z,15.80
2022-10-16T06:38:53.336Z,15.94
2022-10-16T06:41:21.847Z,15.88
2022-10-16T06:43:49.461Z,15.84
2022-10-16T06:46:17.974Z,15.94
2022-10-16T06:48:45.193Z,16.06
2022-10-16T06:51:14.052Z,16.09
2022-10-16T06:54:01.463Z,16.02
2022-10-16T06:56:31.905Z,15.94
2022-10-16T06:58:59.815Z,16.01
2022-10-16T07:01:27.462Z,16.12
2022-10-16T07:03:54.661Z,16.16
2022-10-16T07:06:23.528Z,16.26
2022-10-16T07:08:50.859Z,16.34
2022-10-16T07:11:19.316Z,16.40
2022-10-16T07:13:50.950Z,16.46
2022-10-16T07:16:23.068Z,16.52
2022-10-16T07:18:55.042Z,16.50
2022-10-16T07:21:23.638Z,16.44
2022-10-16T07:23:51.630Z,16.42
2022-10-16T07:26:18.909Z,16.43
2022-10-16T07:28:46.120Z,16.48
2022-10-16T07:31:14.471Z,16.53
2022-10-16T07:33:44.080Z,16.62
2022-10-16T07:36:15.908Z,16.67
2022-10-16T07:38:44.015Z,16.67
2022-10-16T07:41:13.170Z,16.67
2022-10-16T07:43:40.746Z,16.71
2022-10-16T07:46:07.990Z,16.76
2022-10-16T07:48:35.770Z,16.78
2022-10-16T07:51:04.525Z,16.71
2022-10-16T07:53:32.403Z,16.73
2022-10-16T07:56:00.588Z,16.81
2022-10-16T07:58:28.891Z,16.90
2022-10-16T08:00:56.778Z,16.97
2022-10-16T08:03:24.343Z,17.07
2022-10-16T08:05:51.628Z,17.13
2022-10-16T08:08:19.363Z,17.15
2022-10-16T08:10:46.575Z,17.13
2022-10-16T08:13:16.238Z,16.97
2022-10-16T08:15:44.451Z,17.07
2022-10-16T08:18:12.854Z,17.48
2022-10-16T08:20:40.593Z,17.94
2022-10-16T08:23:08.116Z,18.33
2022-10-16T08:25:36.300Z,18.55
2022-10-16T08:28:11.509Z,19.11
2022-10-16T08:30:38.775Z,19.58
2022-10-16T08:33:06.987Z,19.14
2022-10-16T08:35:34.281Z,18.85
2022-10-16T08:38:03.642Z,19.15
2022-10-16T08:40:33.267Z,19.08
2022-10-16T08:43:03.601Z,19.19
2022-10-16T08:45:49.119Z,19.88
2022-10-16T08:48:35.652Z,20.14
2022-10-16T08:51:03.692Z,20.34
2022-10-16T08:53:42.900Z,20.08
2022-10-16T08:56:10.202Z,19.93
2022-10-16T08:58:37.331Z,19.78
2022-10-16T09:01:05.697Z,19.78
2022-10-16T09:03:58.972Z,19.47
2022-10-16T09:06:26.245Z,19.36
2022-10-16T09:09:05.279Z,19.17
2022-10-16T09:11:51.318Z,19.41
2022-10-16T09:14:26.663Z,19.58
2022-10-16T09:16:58.472Z,19.43
2022-10-16T09:19:29.093Z,19.42
2022-10-16T09:21:56.603Z,19.32
2022-10-16T09:24:27.143Z,19.20
2022-10-16T09:26:56.448Z,19.34
2022-10-16T09:29:26.321Z,19.44
2022-10-16T09:31:54.724Z,19.57
2022-10-16T09:34:28.675Z,19.70
2022-10-16T09:36:57.154Z,19.79
2022-10-16T09:39:24.305Z,19.87
2022-10-16T09:41:51.879Z,19.78
2022-10-16T09:44:19.097Z,19.86
2022-10-16T09:46:46.184Z,19.91
2022-10-16T09:49:21.910Z,19.74
2022-10-16T09:51:49.015Z,19.72
2022-10-16T09:54:20.431Z,19.83
2022-10-16T09:56:52.937Z,19.93
2022-10-16T09:59:21.264Z,19.86
2022-10-16T10:01:50.822Z,19.95
2022-10-16T10:04:22.060Z,20.04
2022-10-16T10:06:56.776Z,20.08
2022-10-16T10:09:23.836Z,20.16
2022-10-16T10:11:53.869Z,20.30
2022-10-16T10:14:25.627Z,20.36
2022-10-16T10:16:53.732Z,20.46
2022-10-16T10:19:27.959Z,20.47
2022-10-16T10:21:57.896Z,20.38
2022-10-16T10:24:25.014Z,20.43
2022-10-16T10:26:55.778Z,20.45
2022-10-16T10:29:41.751Z,20.54
2022-10-16T10:32:24.786Z,20.58
2022-10-16T10:34:57.423Z,20.55
2022-10-16T10:37:24.581Z,20.51
2022-10-16T10:39:59.257Z,20.55
2022-10-16T10:42:35.777Z,20.61
2022-10-16T10:45:29.419Z,20.67
2022-10-16T10:47:56.580Z,20.62
2022-10-16T10:50:26.753Z,20.43
2022-10-16T10:52:54.151Z,20.24
2022-10-16T10:55:37.911Z,20.33
2022-10-16T10:58:16.400Z,20.49
2022-10-16T11:00:43.505Z,20.50
2022-10-16T11:03:22.605Z,20.50
2022-10-16T11:06:10.014Z,20.53
2022-10-16T11:08:42.065Z,20.66
2022-10-16T11:11:15.033Z,20.71
2022-10-16T11:13:42.158Z,20.74
2022-10-16T11:16:17.577Z,20.75
2022-10-16T11:18:56.264Z,20.71
2022-10-16T11:21:28.831Z,20.70
2022-10-16T11:24:02.836Z,20.70
2022-10-16T11:26:33.990Z,20.68
2022-10-16T11:29:02.876Z,20.66
2022-10-16T11:31:35.813Z,20.61
2022-10-16T11:34:22.993Z,20.54
2022-10-16T11:36:54.364Z,20.55
2022-10-16T11:39:31.554Z,20.62
2022-10-16T11:42:22.003Z,20.74
2022-10-16T11:45:05.566Z,20.79
2022-10-16T11:48:00.805Z,20.74
2022-10-16T11:50:37.033Z,20.78
2022-10-16T11:53:22.603Z,20.70
2022-10-16T11:55:49.822Z,20.84
2022-10-16T11:58:29.498Z,20.94
2022-10-16T12:01:06.774Z,21.04
2022-10-16T12:03:56.779Z,21.05
2022-10-16T12:06:31.305Z,20.92
2022-10-16T12:09:00.444Z,20.90
2022-10-16T12:11:27.613Z,20.90
2022-10-16T12:14:12.771Z,20.92
2022-10-16T12:16:51.168Z,20.96
2022-10-16T12:19:18.732Z,20.97
2022-10-16T12:21:46.606Z,20.91
2022-10-16T12:24:29.439Z,20.80
2022-10-16T12:26:56.867Z,20.74
2022-10-16T12:29:35.250Z,20.72
2022-10-16T12:32:04.377Z,20.79
2022-10-16T12:34:43.304Z,20.86
2022-10-16T12:37:30.666Z,20.91
2022-10-16T12:39:58.287Z,20.93
2022-10-16T12:42:25.692Z,20.96
2022-10-16T12:44:53.611Z,20.99
2022-10-16T12:47:25.599Z,21.01
2022-10-16T12:49:54.489Z,21.00
2022-10-16T12:52:29.809Z,21.02
2022-10-16T12:55:01.601Z,21.03
2022-10-16T12:57:38.338Z,21.07
2022-10-16T13:00:09.444Z,21.08
2022-10-16T13:02:48.912Z,21.06
2022-10-16T13:05:16.057Z,21.05
2022-10-16T13:07:43.184Z,21.04
2022-10-16T13:10:25.802Z,21.05
2022-10-16T13:13:25.193Z,21.11
2022-10-16T13:16:04.290Z,21.10
2022-10-16T13:18:41.965Z,21.13
2022-10-16T13:21:32.032Z,21.15
2022-10-16T13:24:09.699Z,21.15
2022-10-16T13:26:44.090Z,21.18
2022-10-16T13:29:11.426Z,21.19
2022-10-16T13:31:39.367Z,21.20
2022-10-16T13:34:07.518Z,21.24
2022-10-16T13:36:45.510Z,21.28
2022-10-16T13:39:21.802Z,21.29
2022-10-16T13:42:08.957Z,21.27
2022-10-16T13:44:42.596Z,21.20
2022-10-16T13:47:22.430Z,21.16
2022-10-16T13:50:00.282Z,21.13
2022-10-16T13:52:27.691Z,21.14
2022-10-16T13:54:59.349Z,21.11
2022-10-16T13:57:29.420Z,21.08
2022-10-16T13:59:56.588Z,21.06
2022-10-16T14:02:23.818Z,21.03
2022-10-16T14:04:51.400Z,21.03
2022-10-16T14:07:22.819Z,21.06
2022-10-16T14:09:51.310Z,21.10
2022-10-16T14:12:18.525Z,21.14
2022-10-16T14:14:50.504Z,21.14
2022-10-16T14:17:23.740Z,21.14
2022-10-16T14:19:55.479Z,21.19
2022-10-16T14:22:35.177Z,21.20
2022-10-16T14:25:16.587Z,21.19
2022-10-16T14:27:43.965Z,21.16
2022-10-16T14:30:15.751Z,21.15
2022-10-16T14:32:53.320Z,21.13
2022-10-16T14:35:29.391Z,21.14
2022-10-16T14:37:57.668Z,21.16
2022-10-16T14:40:26.194Z,21.20
2022-10-16T14:42:53.781Z,21.24
2022-10-16T14:45:22.272Z,21.26
2022-10-16T14:47:59.735Z,21.28
2022-10-16T14:50:27.084Z,21.28
2022-10-16T14:52:54.290Z,21.26
2022-10-16T14:55:21.627Z,21.25
2022-10-16T14:57:48.953Z,21.22
2022-10-16T15:00:16.244Z,21.21
2022-10-16T15:02:43.931Z,21.19
2022-10-16T15:05:21.736Z,21.15
2022-10-16T15:07:50.144Z,21.14
2022-10-16T15:10:19.001Z,21.12
2022-10-16T15:12:46.577Z,21.08
2022-10-16T15:15:51.686Z,21.05
2022-10-16T15:18:21.436Z,21.04
2022-10-16T15:20:51.746Z,21.01
2022-10-16T15:23:20.349Z,20.98
2022-10-16T15:25:50.317Z,20.95
2022-10-16T15:28:18.320Z,20.91
2022-10-16T15:30:46.095Z,20.88
2022-10-16T15:33:16.429Z,20.83
2022-10-16T15:35:43.980Z,20.80
2022-10-16T15:38:14.797Z,20.77
2022-10-16T15:40:42.317Z,20.74
2022-10-16T15:43:10.024Z,20.71
2022-10-16T15:45:37.139Z,20.69
2022-10-16T15:48:04.645Z,20.65
2022-10-16T15:50:32.676Z,20.64
2022-10-16T15:52:59.865Z,20.63
2022-10-16T15:55:27.005Z,20.57
2022-10-16T15:57:54.141Z,20.55
2022-10-16T16:00:26.525Z,20.52
2022-10-16T16:02:54.529Z,20.51
2022-10-16T16:05:22.728Z,20.50
2022-10-16T16:07:50.120Z,20.46
2022-10-16T16:10:17.673Z,20.42
2022-10-16T16:12:52.500Z,20.38
2022-10-16T16:15:25.661Z,20.35
2022-10-16T16:20:31.570Z,20.27
2022-10-16T16:22:59.039Z,20.24
2022-10-16T16:25:26.224Z,20.21
2022-10-16T16:27:53.360Z,20.19
2022-10-16T16:30:23.737Z,20.16
2022-10-16T16:32:54.463Z,20.12
2022-10-16T16:35:21.595Z,20.10
2022-10-16T16:37:48.862Z,20.06
2022-10-16T16:40:16.118Z,20.04
2022-10-16T16:42:43.332Z,20.00
2022-10-16T16:45:10.573Z,19.98
2022-10-16T16:47:39.435Z,19.96
2022-10-16T16:50:07.959Z,19.92
2022-10-16T16:52:35.817Z,19.89
2022-10-16T16:55:03.367Z,19.86
2022-10-16T16:57:30.686Z,19.80
2022-10-16T16:59:58.073Z,19.75
2022-10-16T17:02:26.240Z,19.71
2022-10-16T17:04:53.397Z,19.69
2022-10-16T17:07:24.261Z,19.66
2022-10-16T17:09:51.626Z,19.61
2022-10-16T17:12:18.833Z,19.58
2022-10-16T17:14:45.980Z,19.58
2022-10-16T17:17:13.233Z,19.54
2022-10-16T17:19:40.380Z,19.49
2022-10-16T17:22:07.515Z,19.46
2022-10-16T17:24:34.765Z,19.42
2022-10-16T17:27:01.901Z,19.40
2022-10-16T17:29:29.119Z,19.37
2022-10-16T17:31:56.691Z,19.36
2022-10-16T17:34:23.853Z,19.38
2022-10-16T17:36:51.037Z,19.37
2022-10-16T17:39:18.968Z,19.40
2022-10-16T17:41:47.063Z,19.40
2022-10-16T17:44:19.932Z,19.34
2022-10-16T17:46:48.090Z,19.24
2022-10-16T17:49:15.748Z,19.23
2022-10-16T17:51:43.349Z,19.19
2022-10-16T17:54:11.711Z,19.24
2022-10-16T17:56:38.843Z,19.26
2022-10-16T17:59:06.671Z,19.23
2022-10-16T18:01:35.144Z,19.21
2022-10-16T18:04:02.309Z,19.18
2022-10-16T18:06:30.810Z,19.14
2022-10-16T18:08:58.699Z,19.08
2022-10-16T18:11:26.928Z,19.06
2022-10-16T18:13:55.099Z,19.00
2022-10-16T18:16:22.761Z,18.97
2022-10-16T18:18:50.359Z,18.93
2022-10-16T18:21:18.866Z,18.92
2022-10-16T18:23:50.915Z,18.84
2022-10-16T18:26:20.622Z,18.74
2022-10-16T18:28:47.899Z,18.68
2022-10-16T18:31:16.652Z,18.62
2022-10-16T18:33:53.913Z,18.56
2022-10-16T18:36:32.536Z,18.49
2022-10-16T18:39:00.366Z,18.37
2022-10-16T18:41:28.005Z,18.29
2022-10-16T18:43:56.275Z,18.20
2022-10-16T18:46:24.048Z,18.23
2022-10-16T18:48:52.007Z,18.20
2022-10-16T18:51:20.781Z,18.22
2022-10-16T18:53:51.072Z,18.22
2022-10-16T18:56:19.626Z,18.24
2022-10-16T18:58:48.576Z,18.23
2022-10-16T19:01:17.222Z,18.22
2022-10-16T19:03:44.375Z,18.20
2022-10-16T19:06:13.377Z,18.16
2022-10-16T19:08:41.396Z,18.12
2022-10-16T19:11:10.240Z,18.09
2022-10-16T19:13:37.760Z,18.08
2022-10-16T19:16:21.493Z,18.06
2022-10-16T19:18:52.166Z,18.04
2022-10-16T19:21:19.810Z,18.03
2022-10-16T19:23:50.873Z,18.03
2022-10-16T19:26:18.920Z,18.05
2022-10-16T19:28:46.648Z,18.13
2022-10-16T19:31:16.187Z,18.02
2022-10-16T19:33:43.826Z,17.96
2022-10-16T19:36:13.110Z,17.93
2022-10-16T19:38:41.262Z,17.97
2022-10-16T19:41:09.765Z,17.92
2022-10-16T19:43:37.292Z,17.89
2022-10-16T19:46:09.317Z,17.85
2022-10-16T19:48:37.337Z,17.80
2022-10-16T19:51:05.534Z,17.77
2022-10-16T19:53:33.217Z,17.72
2022-10-16T19:56:00.792Z,17.65
2022-10-16T19:58:28.235Z,17.64
2022-10-16T20:00:55.920Z,17.64
2022-10-16T20:03:23.173Z,17.63
2022-10-16T20:05:51.530Z,17.64
2022-10-16T20:08:18.731Z,17.51
2022-10-16T20:10:55.007Z,17.63
2022-10-16T20:13:22.275Z,17.60
2022-10-16T20:18:50.525Z,17.55
2022-10-16T20:21:18.781Z,17.63
2022-10-16T20:23:47.166Z,17.54
2022-10-16T20:26:14.580Z,17.45
2022-10-16T20:28:42.512Z,17.43
2022-10-16T20:31:12.061Z,17.40
2022-10-16T20:33:39.391Z,17.39
2022-10-16T20:36:10.254Z,17.35
2022-10-16T20:38:37.718Z,17.33
2022-10-16T20:41:05.602Z,17.33
2022-10-16T20:43:32.801Z,17.34
2022-10-16T20:46:01.079Z,17.32
2022-10-16T20:48:28.214Z,17.32
2022-10-16T20:50:55.304Z,17.30
2022-10-16T20:53:22.573Z,17.29
2022-10-16T20:55:49.739Z,17.32
2022-10-16T20:58:17.476Z,17.33
2022-10-16T21:00:44.916Z,17.36
2022-10-16T21:03:12.324Z,17.32
2022-10-16T21:05:42.591Z,17.22
2022-10-16T21:08:09.827Z,17.17
2022-10-16T21:10:36.936Z,17.19
2022-10-16T21:13:04.058Z,17.19
2022-10-16T21:15:31.197Z,17.10
2022-10-16T21:17:59.110Z,17.03
2022-10-16T21:20:26.209Z,16.94
2022-10-16T21:22:53.657Z,16.82
2022-10-16T21:25:20.882Z,16.67
2022-10-16T21:27:48.833Z,16.66
2022-10-16T21:30:16.065Z,16.65
2022-10-16T21:32:44.215Z,16.67
2022-10-16T21:35:11.523Z,16.60
2022-10-16T21:37:39.564Z,16.55
2022-10-16T21:40:07.091Z,16.49
2022-10-16T21:42:34.360Z,16.54
2022-10-16T21:45:01.587Z,16.56
2022-10-16T21:47:28.804Z,16.65
2022-10-16T21:49:55.969Z,16.65
2022-10-16T21:52:23.213Z,16.65
2022-10-16T21:54:50.411Z,16.61
2022-10-16T21:57:17.541Z,16.64
2022-10-16T21:59:44.676Z,16.64
2022-10-16T22:02:12.470Z,16.67
2022-10-16T22:04:39.645Z,16.75
2022-10-16T22:07:07.516Z,16.75
2022-10-16T22:09:34.704Z,16.71
2022-10-16T22:12:01.884Z,16.68
2022-10-16T22:14:29.048Z,16.67
2022-10-16T22:16:56.489Z,16.68
2022-10-16T22:19:23.698Z,16.65
2022-10-16T22:21:54.517Z,16.69
2022-10-16T22:24:21.745Z,16.73
2022-10-16T22:26:49.455Z,16.70
2022-10-16T22:29:17.272Z,16.68
2022-10-16T22:31:45.218Z,16.59
2022-10-16T22:34:13.861Z,16.56
2022-10-16T22:36:41.008Z,16.51
2022-10-16T22:39:09.926Z,16.40
2022-10-16T22:41:37.404Z,16.41
2022-10-16T22:44:04.688Z,16.38
2022-10-16T22:46:32.287Z,16.38
2022-10-16T22:48:59.463Z,16.35
2022-10-16T22:51:27.122Z,16.37
2022-10-16T22:53:54.587Z,16.34
2022-10-16T22:56:22.522Z,16.33
2022-10-16T22:58:49.907Z,16.30
2022-10-16T23:01:22.976Z,16.31
2022-10-16T23:03:50.226Z,16.30
2022-10-16T23:06:18.100Z,16.26
2022-10-16T23:08:45.238Z,16.25
2022-10-16T23:11:13.073Z,16.17
2022-10-16T23:13:45.104Z,16.13
2022-10-16T23:16:19.905Z,16.12
2022-10-16T23:18:47.812Z,16.16
2022-10-16T23:21:19.520Z,16.24
2022-10-16T23:23:47.102Z,16.17
2022-10-16T23:26:18.832Z,16.12
2022-10-16T23:28:46.114Z,16.11
2022-10-16T23:31:14.260Z,16.04
2022-10-16T23:33:41.593Z,15.97
2022-10-16T23:36:10.030Z,15.96
2022-10-16T23:38:37.560Z,15.99
2022-10-16T23:41:05.819Z,16.07
2022-10-16T23:43:33.052Z,16.23
2022-10-16T23:46:00.257Z,16.27
2022-10-16T23:48:27.508Z,16.24
2022-10-16T23:50:54.802Z,16.26
2022-10-16T23:53:22.055Z,16.22
2022-10-16T23:55:49.577Z,16.14
2022-10-16T23:58:16.833Z,16.10
